sensor_id;sensor_type;location;lat;lon;timestamp;pressure;altitude;pressure_sealevel;temperature;humidity
23176;BME280;19910;42.652;23.332;2023-04-27T00:01:51;94323.88;;;7.98;61.27
23176;BME280;19910;42.652;23.332;2023-04-27T00:04:19;94325.47;;;7.99;61.81
23176;BME280;19910;42.652;23.332;2023-04-27T00:06:46;94313.56;;;7.82;60.95
23176;BME280;19910;42.652;23.332;2023-04-27T00:09:13;94330.72;;;7.87;61.06
23176;BME280;19910;42.652;23.332;2023-04-27T00:11:40;94334.22;;;7.78;61.25
23176;BME280;19910;42.652;23.332;2023-04-27T00:14:07;94335.44;;;7.81;60.93
23176;BME280;19910;42.652;23.332;2023-04-27T00:16:33;94336.91;;;7.78;61.24
23176;BME280;19910;42.652;23.332;2023-04-27T00:19:00;94335.63;;;7.76;62.01
23176;BME280;19910;42.652;23.332;2023-04-27T00:21:29;94334.34;;;7.73;61.57
23176;BME280;19910;42.652;23.332;2023-04-27T00:23:56;94344.97;;;7.70;62.04
23176;BME280;19910;42.652;23.332;2023-04-27T00:26:22;94335.78;;;7.62;62.24
23176;BME280;19910;42.652;23.332;2023-04-27T00:28:51;94335.44;;;7.55;62.05
23176;BME280;19910;42.652;23.332;2023-04-27T00:31:18;94332.91;;;7.50;62.04
23176;BME280;19910;42.652;23.332;2023-04-27T00:33:45;94332.09;;;7.41;62.08
23176;BME280;19910;42.652;23.332;2023-04-27T00:36:11;94326.38;;;7.34;62.07
23176;BME280;19910;42.652;23.332;2023-04-27T00:38:40;94331.91;;;7.29;62.33
23176;BME280;19910;42.652;23.332;2023-04-27T00:41:07;94336.97;;;7.22;62.15
23176;BME280;19910;42.652;23.332;2023-04-27T00:43:40;94340.28;;;7.19;62.33
23176;BME280;19910;42.652;23.332;2023-04-27T00:46:08;94342.97;;;7.19;62.30
23176;BME280;19910;42.652;23.332;2023-04-27T00:48:35;94330.44;;;7.05;62.84
23176;BME280;19910;42.652;23.332;2023-04-27T00:51:02;94345.63;;;7.01;63.01
23176;BME280;19910;42.652;23.332;2023-04-27T00:53:30;94334.34;;;6.91;63.00
23176;BME280;19910;42.652;23.332;2023-04-27T00:55:59;94343.34;;;6.86;62.88
23176;BME280;19910;42.652;23.332;2023-04-27T00:58:26;94334.56;;;6.72;64.18
23176;BME280;19910;42.652;23.332;2023-04-27T01:00:53;94335.06;;;6.74;63.81
23176;BME280;19910;42.652;23.332;2023-04-27T01:03:21;94344.72;;;6.75;63.49
23176;BME280;19910;42.652;23.332;2023-04-27T01:05:48;94350.41;;;6.73;64.02
23176;BME280;19910;42.652;23.332;2023-04-27T01:08:14;94357.19;;;6.71;64.05
23176;BME280;19910;42.652;23.332;2023-04-27T01:10:41;94354.28;;;6.59;64.76
23176;BME280;19910;42.652;23.332;2023-04-27T01:13:10;94354.75;;;6.52;64.48
23176;BME280;19910;42.652;23.332;2023-04-27T01:15:37;94361.88;;;6.57;65.19
23176;BME280;19910;42.652;23.332;2023-04-27T01:18:03;94341.69;;;6.37;64.71
23176;BME280;19910;42.652;23.332;2023-04-27T01:20:30;94357.44;;;6.30;65.64
23176;BME280;19910;42.652;23.332;2023-04-27T01:22:58;94356.66;;;6.29;65.92
23176;BME280;19910;42.652;23.332;2023-04-27T01:25:26;94363.63;;;6.30;65.42
23176;BME280;19910;42.652;23.332;2023-04-27T01:27:53;94366.47;;;6.25;65.83
23176;BME280;19910;42.652;23.332;2023-04-27T01:30:20;94365.06;;;6.28;65.56
23176;BME280;19910;42.652;23.332;2023-04-27T01:32:47;94366.94;;;6.27;65.57
23176;BME280;19910;42.652;23.332;2023-04-27T01:35:15;94364.88;;;6.24;65.32
23176;BME280;19910;42.652;23.332;2023-04-27T01:37:41;94365.59;;;6.16;65.63
23176;BME280;19910;42.652;23.332;2023-04-27T01:40:11;94375.25;;;6.17;65.22
23176;BME280;19910;42.652;23.332;2023-04-27T01:42:39;94376.22;;;6.21;65.22
23176;BME280;19910;42.652;23.332;2023-04-27T01:45:07;94369.88;;;6.17;65.31
23176;BME280;19910;42.652;23.332;2023-04-27T01:47:34;94377.44;;;6.15;65.12
23176;BME280;19910;42.652;23.332;2023-04-27T01:50:01;94368.28;;;6.16;65.14
23176;BME280;19910;42.652;23.332;2023-04-27T01:52:28;94375.03;;;6.27;65.16
23176;BME280;19910;42.652;23.332;2023-04-27T01:54:55;94360.69;;;6.18;64.36
23176;BME280;19910;42.652;23.332;2023-04-27T01:57:22;94371.03;;;6.25;64.66
23176;BME280;19910;42.652;23.332;2023-04-27T01:59:51;94375.25;;;6.17;64.85
23176;BME280;19910;42.652;23.332;2023-04-27T02:02:17;94373.66;;;6.16;65.21
23176;BME280;19910;42.652;23.332;2023-04-27T02:04:45;94370.66;;;6.18;64.30
23176;BME280;19910;42.652;23.332;2023-04-27T02:07:11;94368.28;;;6.16;65.13
23176;BME280;19910;42.652;23.332;2023-04-27T02:09:38;94370.13;;;6.07;64.78
23176;BME280;19910;42.652;23.332;2023-04-27T02:12:05;94373.91;;;6.06;65.75
23176;BME280;19910;42.652;23.332;2023-04-27T02:14:32;94370.72;;;6.04;64.75
23176;BME280;19910;42.652;23.332;2023-04-27T02:17:01;94374.91;;;6.10;64.65
23176;BME280;19910;42.652;23.332;2023-04-27T02:19:27;94371.09;;;6.11;64.69
23176;BME280;19910;42.652;23.332;2023-04-27T02:21:54;94380.28;;;6.10;64.73
23176;BME280;19910;42.652;23.332;2023-04-27T02:24:21;94375.50;;;6.07;64.41
23176;BME280;19910;42.652;23.332;2023-04-27T02:26:48;94385.25;;;6.03;64.50
23176;BME280;19910;42.652;23.332;2023-04-27T02:29:15;94385.16;;;6.08;64.86
23176;BME280;19910;42.652;23.332;2023-04-27T02:31:43;94376.47;;;6.11;64.14
23176;BME280;19910;42.652;23.332;2023-04-27T02:34:11;94383.44;;;6.12;64.14
23176;BME280;19910;42.652;23.332;2023-04-27T02:36:38;94380.13;;;6.15;63.67
23176;BME280;19910;42.652;23.332;2023-04-27T02:39:04;94377.81;;;6.22;63.85
23176;BME280;19910;42.652;23.332;2023-04-27T02:41:31;94373.66;;;6.16;63.92
23176;BME280;19910;42.652;23.332;2023-04-27T02:43:58;94384.78;;;6.23;63.64
23176;BME280;19910;42.652;23.332;2023-04-27T02:46:25;94386.09;;;6.26;63.51
23176;BME280;19910;42.652;23.332;2023-04-27T02:48:52;94387.09;;;6.16;64.15
23176;BME280;19910;42.652;23.332;2023-04-27T02:51:20;94386.38;;;6.24;64.04
23176;BME280;19910;42.652;23.332;2023-04-27T02:53:48;94386.63;;;6.14;64.65
23176;BME280;19910;42.652;23.332;2023-04-27T02:56:15;94389.94;;;6.11;63.99
23176;BME280;19910;42.652;23.332;2023-04-27T02:58:41;94381.25;;;6.14;64.06
23176;BME280;19910;42.652;23.332;2023-04-27T03:01:09;94382.81;;;6.15;63.48
23176;BME280;19910;42.652;23.332;2023-04-27T03:03:36;94389.78;;;6.16;63.59
23176;BME280;19910;42.652;23.332;2023-04-27T03:06:03;94392.81;;;6.15;63.33
23176;BME280;19910;42.652;23.332;2023-04-27T03:08:31;94394.38;;;6.16;63.15
23176;BME280;19910;42.652;23.332;2023-04-27T03:10:58;94397.75;;;6.21;63.81
23176;BME280;19910;42.652;23.332;2023-04-27T03:13:25;94388.69;;;6.17;63.18
23176;BME280;19910;42.652;23.332;2023-04-27T03:15:52;94397.75;;;6.21;63.41
23176;BME280;19910;42.652;23.332;2023-04-27T03:18:19;94407.50;;;6.17;63.91
23176;BME280;19910;42.652;23.332;2023-04-27T03:20:46;94410.94;;;6.09;63.72
23176;BME280;19910;42.652;23.332;2023-04-27T03:23:13;94405.63;;;6.18;63.65
23176;BME280;19910;42.652;23.332;2023-04-27T03:25:41;94408.16;;;6.14;63.17
23176;BME280;19910;42.652;23.332;2023-04-27T03:28:08;94409.09;;;6.18;62.75
23176;BME280;19910;42.652;23.332;2023-04-27T03:30:34;94420.47;;;6.15;63.20
23176;BME280;19910;42.652;23.332;2023-04-27T03:33:01;94409.53;;;6.12;63.54
23176;BME280;19910;42.652;23.332;2023-04-27T03:35:28;94417.00;;;6.15;62.66
23176;BME280;19910;42.652;23.332;2023-04-27T03:37:55;94422.19;;;6.11;63.57
23176;BME280;19910;42.652;23.332;2023-04-27T03:40:22;94422.84;;;6.17;63.06
23176;BME280;19910;42.652;23.332;2023-04-27T03:42:50;94423.44;;;6.27;63.52
23176;BME280;19910;42.652;23.332;2023-04-27T03:45:16;94427.22;;;6.26;62.49
23176;BME280;19910;42.652;23.332;2023-04-27T03:47:46;94428.69;;;6.32;62.94
23176;BME280;19910;42.652;23.332;2023-04-27T03:50:13;94427.78;;;6.37;62.88
23176;BME280;19910;42.652;23.332;2023-04-27T03:52:40;94413.81;;;6.35;61.99
23176;BME280;19910;42.652;23.332;2023-04-27T03:55:07;94425.72;;;6.42;62.34
23176;BME280;19910;42.652;23.332;2023-04-27T03:57:35;94427.25;;;6.57;62.29
23176;BME280;19910;42.652;23.332;2023-04-27T04:00:04;94429.84;;;6.62;60.64
23176;BME280;19910;42.652;23.332;2023-04-27T04:02:36;94429.03;;;6.62;60.32
23176;BME280;19910;42.652;23.332;2023-04-27T04:05:04;94437.00;;;6.67;60.68
23176;BME280;19910;42.652;23.332;2023-04-27T04:07:31;94455.94;;;6.62;60.26
23176;BME280;19910;42.652;23.332;2023-04-27T04:09:59;94444.56;;;6.65;60.18
23176;BME280;19910;42.652;23.332;2023-04-27T04:12:26;94439.44;;;6.55;60.33
23176;BME280;19910;42.652;23.332;2023-04-27T04:14:53;94453.25;;;6.62;60.31
23176;BME280;19910;42.652;23.332;2023-04-27T04:17:21;94451.09;;;6.72;60.53
23176;BME280;19910;42.652;23.332;2023-04-27T04:19:48;94448.47;;;6.81;60.17
23176;BME280;19910;42.652;23.332;2023-04-27T04:22:15;94454.34;;;6.61;60.13
23176;BME280;19910;42.652;23.332;2023-04-27T04:24:46;94455.47;;;6.82;59.72
23176;BME280;19910;42.652;23.332;2023-04-27T04:27:13;94462.78;;;6.90;60.00
23176;BME280;19910;42.652;23.332;2023-04-27T04:29:41;94459.66;;;6.97;59.02
23176;BME280;19910;42.652;23.332;2023-04-27T04:32:08;94468.88;;;7.04;59.32
23176;BME280;19910;42.652;23.332;2023-04-27T04:34:38;94476.88;;;7.58;57.62
23176;BME280;19910;42.652;23.332;2023-04-27T04:37:05;94469.47;;;7.80;56.71
23176;BME280;19910;42.652;23.332;2023-04-27T04:39:32;94469.69;;;8.10;56.96
23176;BME280;19910;42.652;23.332;2023-04-27T04:41:59;94474.53;;;7.73;57.17
23176;BME280;19910;42.652;23.332;2023-04-27T04:44:25;94491.28;;;7.53;57.41
23176;BME280;19910;42.652;23.332;2023-04-27T04:46:52;94486.84;;;8.14;56.51
23176;BME280;19910;42.652;23.332;2023-04-27T04:49:19;94475.09;;;9.05;53.30
23176;BME280;19910;42.652;23.332;2023-04-27T04:51:47;94477.16;;;10.13;51.22
23176;BME280;19910;42.652;23.332;2023-04-27T04:54:14;94468.53;;;10.49;48.69
23176;BME280;19910;42.652;23.332;2023-04-27T04:56:41;94476.84;;;10.44;49.62
23176;BME280;19910;42.652;23.332;2023-04-27T04:59:08;94481.84;;;10.75;48.40
23176;BME280;19910;42.652;23.332;2023-04-27T05:01:35;94483.53;;;10.17;49.34
23176;BME280;19910;42.652;23.332;2023-04-27T05:04:02;94483.19;;;10.48;50.52
23176;BME280;19910;42.652;23.332;2023-04-27T05:06:28;94491.72;;;11.70;46.24
23176;BME280;19910;42.652;23.332;2023-04-27T05:08:57;94484.78;;;12.70;44.04
23176;BME280;19910;42.652;23.332;2023-04-27T05:11:24;94483.41;;;12.12;45.33
23176;BME280;19910;42.652;23.332;2023-04-27T05:13:51;94495.88;;;11.10;47.64
23176;BME280;19910;42.652;23.332;2023-04-27T05:16:17;94502.66;;;10.42;48.89
23176;BME280;19910;42.652;23.332;2023-04-27T05:18:44;94493.06;;;10.23;49.53
23176;BME280;19910;42.652;23.332;2023-04-27T05:21:14;94509.03;;;9.78;50.56
23176;BME280;19910;42.652;23.332;2023-04-27T05:23:45;94513.13;;;9.84;50.69
23176;BME280;19910;42.652;23.332;2023-04-27T05:26:14;94517.63;;;9.80;51.49
23176;BME280;19910;42.652;23.332;2023-04-27T05:28:42;94524.13;;;9.33;52.59
23176;BME280;19910;42.652;23.332;2023-04-27T05:31:09;94534.38;;;8.93;52.99
23176;BME280;19910;42.652;23.332;2023-04-27T05:33:36;94530.13;;;8.74;53.46
23176;BME280;19910;42.652;23.332;2023-04-27T05:36:03;94510.56;;;8.69;54.16
23176;BME280;19910;42.652;23.332;2023-04-27T05:38:30;94529.25;;;8.31;54.92
23176;BME280;19910;42.652;23.332;2023-04-27T05:40:58;94528.88;;;8.06;55.59
23176;BME280;19910;42.652;23.332;2023-04-27T05:43:26;94527.19;;;8.19;55.73
23176;BME280;19910;42.652;23.332;2023-04-27T05:45:53;94533.03;;;8.21;55.83
23176;BME280;19910;42.652;23.332;2023-04-27T05:48:20;94523.13;;;7.91;56.42
23176;BME280;19910;42.652;23.332;2023-04-27T05:50:47;94529.78;;;7.93;56.02
23176;BME280;19910;42.652;23.332;2023-04-27T05:53:13;94535.84;;;7.99;57.05
23176;BME280;19910;42.652;23.332;2023-04-27T05:55:41;94539.97;;;7.96;57.30
23176;BME280;19910;42.652;23.332;2023-04-27T05:58:08;94534.03;;;7.77;57.29
23176;BME280;19910;42.652;23.332;2023-04-27T06:00:37;94542.31;;;7.89;57.09
23176;BME280;19910;42.652;23.332;2023-04-27T06:03:04;94530.28;;;7.95;57.07
23176;BME280;19910;42.652;23.332;2023-04-27T06:05:31;94533.88;;;8.47;59.25
23176;BME280;19910;42.652;23.332;2023-04-27T06:07:58;94536.44;;;8.52;57.83
23176;BME280;19910;42.652;23.332;2023-04-27T06:10:25;94530.97;;;9.39;61.26
23176;BME280;19910;42.652;23.332;2023-04-27T06:12:52;94518.19;;;8.84;55.51
23176;BME280;19910;42.652;23.332;2023-04-27T06:15:19;94529.00;;;8.67;55.81
23176;BME280;19910;42.652;23.332;2023-04-27T06:17:47;94539.66;;;8.72;56.09
23176;BME280;19910;42.652;23.332;2023-04-27T06:20:14;94521.66;;;8.93;56.39
23176;BME280;19910;42.652;23.332;2023-04-27T06:22:41;94534.06;;;9.11;54.86
23176;BME280;19910;42.652;23.332;2023-04-27T06:25:08;94528.88;;;9.44;54.36
23176;BME280;19910;42.652;23.332;2023-04-27T06:27:35;94510.50;;;9.20;54.16
23176;BME280;19910;42.652;23.332;2023-04-27T06:30:02;94516.75;;;8.95;55.34
23176;BME280;19910;42.652;23.332;2023-04-27T06:32:29;94508.22;;;9.40;54.66
23176;BME280;19910;42.652;23.332;2023-04-27T06:34:57;94526.72;;;9.29;53.99
23176;BME280;19910;42.652;23.332;2023-04-27T06:37:24;94506.75;;;8.87;53.86
23176;BME280;19910;42.652;23.332;2023-04-27T06:39:51;94528.00;;;9.14;54.45
23176;BME280;19910;42.652;23.332;2023-04-27T06:42:18;94535.66;;;8.95;54.37
23176;BME280;19910;42.652;23.332;2023-04-27T06:44:45;94516.91;;;9.62;53.45
23176;BME280;19910;42.652;23.332;2023-04-27T06:47:11;94515.38;;;10.20;52.28
23176;BME280;19910;42.652;23.332;2023-04-27T06:49:38;94513.69;;;10.57;51.44
23176;BME280;19910;42.652;23.332;2023-04-27T06:52:07;94513.94;;;10.23;51.99
23176;BME280;19910;42.652;23.332;2023-04-27T06:54:34;94518.84;;;9.91;52.61
23176;BME280;19910;42.652;23.332;2023-04-27T06:57:00;94521.38;;;10.26;50.99
23176;BME280;19910;42.652;23.332;2023-04-27T06:59:27;94514.88;;;10.89;51.51
23176;BME280;19910;42.652;23.332;2023-04-27T07:01:54;94503.09;;;11.06;49.66
23176;BME280;19910;42.652;23.332;2023-04-27T07:04:21;94503.38;;;10.30;51.01
23176;BME280;19910;42.652;23.332;2023-04-27T07:06:48;94515.69;;;10.48;50.44
23176;BME280;19910;42.652;23.332;2023-04-27T07:09:16;94503.47;;;10.63;50.29
23176;BME280;19910;42.652;23.332;2023-04-27T07:11:43;94509.53;;;10.81;50.08
23176;BME280;19910;42.652;23.332;2023-04-27T07:14:10;94512.50;;;10.46;50.76
23176;BME280;19910;42.652;23.332;2023-04-27T07:16:37;94504.22;;;10.13;50.24
23176;BME280;19910;42.652;23.332;2023-04-27T07:19:04;94487.13;;;10.72;51.26
23176;BME280;19910;42.652;23.332;2023-04-27T07:21:31;94496.25;;;10.88;49.86
23176;BME280;19910;42.652;23.332;2023-04-27T07:23:58;94505.66;;;11.35;49.68
23176;BME280;19910;42.652;23.332;2023-04-27T07:26:26;94481.38;;;11.96;48.61
23176;BME280;19910;42.652;23.332;2023-04-27T07:28:53;94487.13;;;12.19;46.42
23176;BME280;19910;42.652;23.332;2023-04-27T07:31:21;94491.06;;;12.34;46.25
23176;BME280;19910;42.652;23.332;2023-04-27T07:33:47;94493.97;;;11.56;47.62
23176;BME280;19910;42.652;23.332;2023-04-27T07:36:15;94480.44;;;12.17;47.53
23176;BME280;19910;42.652;23.332;2023-04-27T07:38:41;94496.06;;;11.95;46.25
23176;BME280;19910;42.652;23.332;2023-04-27T07:41:08;94487.00;;;12.28;46.85
23176;BME280;19910;42.652;23.332;2023-04-27T07:43:37;94498.75;;;12.32;46.73
23176;BME280;19910;42.652;23.332;2023-04-27T07:46:04;94484.31;;;12.16;47.06
23176;BME280;19910;42.652;23.332;2023-04-27T07:48:31;94478.88;;;12.16;47.39
23176;BME280;19910;42.652;23.332;2023-04-27T07:50:58;94487.47;;;11.93;46.68
23176;BME280;19910;42.652;23.332;2023-04-27T07:53:25;94479.22;;;11.32;48.31
23176;BME280;19910;42.652;23.332;2023-04-27T07:55:51;94491.41;;;11.26;48.88
23176;BME280;19910;42.652;23.332;2023-04-27T07:58:18;94501.59;;;11.29;47.48
23176;BME280;19910;42.652;23.332;2023-04-27T08:00:47;94496.25;;;10.88;48.22
23176;BME280;19910;42.652;23.332;2023-04-27T08:03:14;94497.47;;;11.56;48.08
23176;BME280;19910;42.652;23.332;2023-04-27T08:05:40;94491.94;;;11.65;47.50
23176;BME280;19910;42.652;23.332;2023-04-27T08:08:07;94494.22;;;12.48;46.27
23176;BME280;19910;42.652;23.332;2023-04-27T08:10:34;94484.53;;;12.75;46.73
23176;BME280;19910;42.652;23.332;2023-04-27T08:13:02;94483.34;;;12.48;46.11
23176;BME280;19910;42.652;23.332;2023-04-27T08:15:29;94502.13;;;11.68;45.70
23176;BME280;19910;42.652;23.332;2023-04-27T08:17:57;94495.59;;;11.81;46.42
23176;BME280;19910;42.652;23.332;2023-04-27T08:20:24;94501.09;;;11.60;47.06
23176;BME280;19910;42.652;23.332;2023-04-27T08:22:51;94498.91;;;11.87;46.20
23176;BME280;19910;42.652;23.332;2023-04-27T08:25:18;94488.13;;;12.39;45.14
23176;BME280;19910;42.652;23.332;2023-04-27T08:27:45;94494.25;;;12.12;45.34
23176;BME280;19910;42.652;23.332;2023-04-27T08:30:12;94478.66;;;11.84;45.50
23176;BME280;19910;42.652;23.332;2023-04-27T08:32:39;94486.56;;;12.26;45.79
23176;BME280;19910;42.652;23.332;2023-04-27T08:35:08;94479.00;;;12.59;46.15
23176;BME280;19910;42.652;23.332;2023-04-27T08:37:35;94471.78;;;12.91;44.72
23176;BME280;19910;42.652;23.332;2023-04-27T08:40:04;94496.00;;;11.59;46.41
23176;BME280;19910;42.652;23.332;2023-04-27T08:42:32;94491.03;;;11.61;46.78
23176;BME280;19910;42.652;23.332;2023-04-27T08:44:59;94487.66;;;12.37;45.75
23176;BME280;19910;42.652;23.332;2023-04-27T08:47:26;94491.97;;;12.38;45.90
23176;BME280;19910;42.652;23.332;2023-04-27T08:49:53;94503.06;;;11.84;46.17
23176;BME280;19910;42.652;23.332;2023-04-27T08:52:21;94489.50;;;12.08;45.34
23176;BME280;19910;42.652;23.332;2023-04-27T08:54:48;94498.03;;;12.59;45.11
23176;BME280;19910;42.652;23.332;2023-04-27T08:57:16;94505.72;;;12.69;45.37
23176;BME280;19910;42.652;23.332;2023-04-27T08:59:43;94499.72;;;12.64;44.48
23176;BME280;19910;42.652;23.332;2023-04-27T09:02:17;94500.53;;;12.64;44.45
23176;BME280;19910;42.652;23.332;2023-04-27T09:04:44;94490.25;;;12.86;43.83
23176;BME280;19910;42.652;23.332;2023-04-27T09:07:12;94487.72;;;13.33;43.78
23176;BME280;19910;42.652;23.332;2023-04-27T09:09:41;94493.19;;;12.53;43.73
23176;BME280;19910;42.652;23.332;2023-04-27T09:12:15;94485.88;;;12.17;44.21
23176;BME280;19910;42.652;23.332;2023-04-27T09:14:42;94487.03;;;13.08;44.39
23176;BME280;19910;42.652;23.332;2023-04-27T09:17:12;94479.44;;;13.01;43.33
23176;BME280;19910;42.652;23.332;2023-04-27T09:19:39;94480.03;;;13.82;43.50
23176;BME280;19910;42.652;23.332;2023-04-27T09:22:07;94482.75;;;13.50;41.52
23176;BME280;19910;42.652;23.332;2023-04-27T09:24:35;94483.41;;;13.04;43.30
23176;BME280;19910;42.652;23.332;2023-04-27T09:27:05;94474.72;;;13.14;43.78
23176;BME280;19910;42.652;23.332;2023-04-27T09:29:34;94474.69;;;13.70;41.84
23176;BME280;19910;42.652;23.332;2023-04-27T09:32:02;94477.88;;;13.28;42.37
23176;BME280;19910;42.652;23.332;2023-04-27T09:34:40;94469.41;;;13.61;42.08
23176;BME280;19910;42.652;23.332;2023-04-27T09:37:07;94445.69;;;13.30;41.48
23176;BME280;19910;42.652;23.332;2023-04-27T09:39:35;94455.56;;;13.66;41.02
23176;BME280;19910;42.652;23.332;2023-04-27T09:42:04;94456.38;;;13.23;41.86
23176;BME280;19910;42.652;23.332;2023-04-27T09:44:31;94441.59;;;12.80;42.20
23176;BME280;19910;42.652;23.332;2023-04-27T09:46:59;94457.84;;;12.93;41.78
23176;BME280;19910;42.652;23.332;2023-04-27T09:49:27;94454.97;;;13.01;41.99
23176;BME280;19910;42.652;23.332;2023-04-27T09:51:57;94452.41;;;12.93;42.00
23176;BME280;19910;42.652;23.332;2023-04-27T09:54:26;94458.00;;;13.56;40.85
23176;BME280;19910;42.652;23.332;2023-04-27T09:57:07;94447.63;;;13.45;40.35
23176;BME280;19910;42.652;23.332;2023-04-27T09:59:47;94443.41;;;13.95;41.90
23176;BME280;19910;42.652;23.332;2023-04-27T10:02:22;94450.72;;;13.60;40.93
23176;BME280;19910;42.652;23.332;2023-04-27T10:05:06;94432.09;;;14.63;39.54
23176;BME280;19910;42.652;23.332;2023-04-27T10:07:37;94434.38;;;14.42;39.10
23176;BME280;19910;42.652;23.332;2023-04-27T10:10:05;94435.88;;;14.74;38.69
23176;BME280;19910;42.652;23.332;2023-04-27T10:12:35;94440.53;;;14.23;39.91
23176;BME280;19910;42.652;23.332;2023-04-27T10:15:11;94445.50;;;14.17;39.75
23176;BME280;19910;42.652;23.332;2023-04-27T10:17:45;94437.59;;;14.12;39.66
23176;BME280;19910;42.652;23.332;2023-04-27T10:20:12;94439.41;;;14.24;39.17
23176;BME280;19910;42.652;23.332;2023-04-27T10:22:40;94417.22;;;14.06;39.77
23176;BME280;19910;42.652;23.332;2023-04-27T10:25:17;94432.69;;;14.72;38.44
23176;BME280;19910;42.652;23.332;2023-04-27T10:27:51;94435.63;;;14.64;39.26
23176;BME280;19910;42.652;23.332;2023-04-27T10:30:20;94430.09;;;14.25;38.50
23176;BME280;19910;42.652;23.332;2023-04-27T10:32:51;94435.88;;;14.23;38.98
23176;BME280;19910;42.652;23.332;2023-04-27T10:35:19;94431.78;;;14.49;40.00
23176;BME280;19910;42.652;23.332;2023-04-27T10:37:47;94428.13;;;14.06;39.02
23176;BME280;19910;42.652;23.332;2023-04-27T10:40:14;94427.81;;;14.81;38.49
23176;BME280;19910;42.652;23.332;2023-04-27T10:42:43;94420.06;;;14.64;38.27
23176;BME280;19910;42.652;23.332;2023-04-27T10:45:12;94428.09;;;14.76;39.12
23176;BME280;19910;42.652;23.332;2023-04-27T10:47:40;94430.59;;;14.31;39.31
23176;BME280;19910;42.652;23.332;2023-04-27T10:50:08;94427.59;;;14.71;38.81
23176;BME280;19910;42.652;23.332;2023-04-27T10:52:40;94430.13;;;14.60;37.78
23176;BME280;19910;42.652;23.332;2023-04-27T10:55:14;94422.75;;;13.94;39.79
23176;BME280;19910;42.652;23.332;2023-04-27T10:57:48;94436.56;;;13.38;38.98
23176;BME280;19910;42.652;23.332;2023-04-27T11:00:21;94424.03;;;13.65;38.59
23176;BME280;19910;42.652;23.332;2023-04-27T11:02:50;94402.41;;;14.77;38.51
23176;BME280;19910;42.652;23.332;2023-04-27T11:05:18;94417.72;;;15.47;36.78
23176;BME280;19910;42.652;23.332;2023-04-27T11:07:45;94400.56;;;15.92;37.14
23176;BME280;19910;42.652;23.332;2023-04-27T11:10:16;94419.75;;;15.27;36.12
23176;BME280;19910;42.652;23.332;2023-04-27T11:12:43;94430.16;;;14.29;37.48
23176;BME280;19910;42.652;23.332;2023-04-27T11:15:10;94416.66;;;14.16;37.64
23176;BME280;19910;42.652;23.332;2023-04-27T11:17:39;94419.69;;;13.96;39.11
23176;BME280;19910;42.652;23.332;2023-04-27T11:20:08;94428.63;;;14.12;38.86
23176;BME280;19910;42.652;23.332;2023-04-27T11:22:43;94427.78;;;13.61;40.02
23176;BME280;19910;42.652;23.332;2023-04-27T11:25:10;94416.63;;;14.48;41.09
23176;BME280;19910;42.652;23.332;2023-04-27T11:27:39;94422.22;;;14.74;38.61
23176;BME280;19910;42.652;23.332;2023-04-27T11:30:18;94424.94;;;15.13;38.67
23176;BME280;19910;42.652;23.332;2023-04-27T11:32:47;94418.41;;;14.60;39.03
23176;BME280;19910;42.652;23.332;2023-04-27T11:35:14;94434.84;;;14.12;39.04
23176;BME280;19910;42.652;23.332;2023-04-27T11:37:42;94435.00;;;13.37;40.33
23176;BME280;19910;42.652;23.332;2023-04-27T11:40:12;94432.97;;;13.34;40.13
23176;BME280;19910;42.652;23.332;2023-04-27T11:42:40;94445.72;;;13.62;39.55
23176;BME280;19910;42.652;23.332;2023-04-27T11:45:10;94430.00;;;14.21;38.53
23176;BME280;19910;42.652;23.332;2023-04-27T11:47:37;94441.31;;;14.74;38.74
23176;BME280;19910;42.652;23.332;2023-04-27T11:50:08;94432.50;;;13.95;38.58
23176;BME280;19910;42.652;23.332;2023-04-27T11:52:37;94439.84;;;14.42;39.29
23176;BME280;19910;42.652;23.332;2023-04-27T11:55:05;94444.97;;;15.01;38.11
23176;BME280;19910;42.652;23.332;2023-04-27T11:57:34;94448.59;;;14.00;38.79
23176;BME280;19910;42.652;23.332;2023-04-27T12:00:03;94438.84;;;13.99;38.06
23176;BME280;19910;42.652;23.332;2023-04-27T12:02:35;94448.00;;;13.60;38.55
23176;BME280;19910;42.652;23.332;2023-04-27T12:05:03;94443.34;;;14.27;40.32
23176;BME280;19910;42.652;23.332;2023-04-27T12:07:31;94417.59;;;13.58;39.32
23176;BME280;19910;42.652;23.332;2023-04-27T12:09:58;94440.34;;;13.49;39.06
23176;BME280;19910;42.652;23.332;2023-04-27T12:12:25;94449.75;;;13.52;39.39
23176;BME280;19910;42.652;23.332;2023-04-27T12:14:53;94464.91;;;13.53;40.15
23176;BME280;19910;42.652;23.332;2023-04-27T12:17:20;94448.09;;;13.63;40.17
23176;BME280;19910;42.652;23.332;2023-04-27T12:19:47;94460.97;;;13.35;38.77
23176;BME280;19910;42.652;23.332;2023-04-27T12:22:14;94455.16;;;13.36;40.11
23176;BME280;19910;42.652;23.332;2023-04-27T12:24:42;94455.28;;;13.71;39.38
23176;BME280;19910;42.652;23.332;2023-04-27T12:27:09;94454.81;;;13.53;38.75
23176;BME280;19910;42.652;23.332;2023-04-27T12:29:36;94455.00;;;13.61;39.09
23176;BME280;19910;42.652;23.332;2023-04-27T12:32:04;94459.91;;;13.39;40.00
23176;BME280;19910;42.652;23.332;2023-04-27T12:34:31;94463.78;;;13.38;40.59
23176;BME280;19910;42.652;23.332;2023-04-27T12:36:58;94455.81;;;13.61;39.96
23176;BME280;19910;42.652;23.332;2023-04-27T12:39:25;94462.94;;;13.66;39.59
23176;BME280;19910;42.652;23.332;2023-04-27T12:41:53;94450.16;;;13.54;39.47
23176;BME280;19910;42.652;23.332;2023-04-27T12:44:21;94452.81;;;13.35;40.90
23176;BME280;19910;42.652;23.332;2023-04-27T12:46:48;94463.53;;;13.75;40.55
23176;BME280;19910;42.652;23.332;2023-04-27T12:49:15;94468.50;;;13.41;39.89
23176;BME280;19910;42.652;23.332;2023-04-27T12:51:43;94441.44;;;13.17;40.85
23176;BME280;19910;42.652;23.332;2023-04-27T12:54:12;94466.50;;;13.54;41.08
23176;BME280;19910;42.652;23.332;2023-04-27T12:56:39;94462.56;;;13.51;40.08
23176;BME280;19910;42.652;23.332;2023-04-27T12:59:07;94454.84;;;13.69;39.94